< < Back
Terminal Aerodrome Forecast


Current Version              Previous Versions:   1  2  3  4  5  6  7  8  9  

Terminal Aerodrome Forecast

106
FTUS42 KMLB 210500 RRA
TAFDAB
TAF
KDAB 210543Z 2106/2206 31005KT P6SM SCT035 BKN100
      TEMPO 2106/2108 SCT008 BKN035
     FM211400 35007KT P6SM FEW025 BKN250
     FM211800 06007KT P6SM SCT030 BKN120
     FM220100 VRB02KT P6SM FEW030 BKN150=

Latest METAR

548
SAUS80 KWBC 211000
MTRDAB
METAR KDAB 210953Z 30004KT 6SM BR SCT005 21/21 A2995 RMK AO2 SLP142
T02110206 $


USA.gov is the U.S. government's official web portal to all federal, state and local government web resources and services.